sensor_id;sensor_type;location;lat;lon;timestamp;pressure;altitude;pressure_sealevel;temperature;humidity
19783;BME280;10051;40.294;-3.754;2024-03-02T00:00:50;93740.91;;;8.72;91.79
19783;BME280;10051;40.294;-3.754;2024-03-02T00:03:16;93725.41;;;8.75;91.87
19783;BME280;10051;40.294;-3.754;2024-03-02T00:05:42;93722.53;;;8.72;92.68
19783;BME280;10051;40.294;-3.754;2024-03-02T00:08:09;93717.34;;;8.67;93.14
19783;BME280;10051;40.294;-3.754;2024-03-02T00:10:38;93710.13;;;8.58;93.60
19783;BME280;10051;40.294;-3.754;2024-03-02T00:13:12;93673.34;;;8.34;93.96
19783;BME280;10051;40.294;-3.754;2024-03-02T00:15:42;93715.25;;;8.69;93.88
19783;BME280;10051;40.294;-3.754;2024-03-02T00:18:12;93704.41;;;8.46;96.05
19783;BME280;10051;40.294;-3.754;2024-03-02T00:20:38;93683.59;;;8.30;97.07
19783;BME280;10051;40.294;-3.754;2024-03-02T00:23:05;93669.56;;;8.45;95.61
19783;BME280;10051;40.294;-3.754;2024-03-02T00:25:42;93706.22;;;8.80;94.89
19783;BME280;10051;40.294;-3.754;2024-03-02T00:28:35;93688.22;;;8.73;95.72
19783;BME280;10051;40.294;-3.754;2024-03-02T00:31:11;93690.78;;;8.78;95.79
19783;BME280;10051;40.294;-3.754;2024-03-02T00:33:47;93654.22;;;8.63;95.60
19783;BME280;10051;40.294;-3.754;2024-03-02T00:36:22;93675.41;;;8.67;96.88
19783;BME280;10051;40.294;-3.754;2024-03-02T00:38:51;93636.34;;;8.41;97.25
19783;BME280;10051;40.294;-3.754;2024-03-02T00:41:26;93652.22;;;8.55;97.01
19783;BME280;10051;40.294;-3.754;2024-03-02T00:46:28;93695.63;;;8.90;97.17
19783;BME280;10051;40.294;-3.754;2024-03-02T00:49:03;93646.22;;;8.54;97.36
19783;BME280;10051;40.294;-3.754;2024-03-02T00:51:32;93689.28;;;8.72;98.50
19783;BME280;10051;40.294;-3.754;2024-03-02T00:54:04;93681.41;;;8.72;99.18
19783;BME280;10051;40.294;-3.754;2024-03-02T00:56:30;93684.84;;;8.68;99.65
19783;BME280;10051;40.294;-3.754;2024-03-02T00:58:56;93671.06;;;8.57;100.00
19783;BME280;10051;40.294;-3.754;2024-03-02T01:01:22;93688.53;;;8.67;100.00
19783;BME280;10051;40.294;-3.754;2024-03-02T01:03:48;93697.63;;;8.74;100.00
19783;BME280;10051;40.294;-3.754;2024-03-02T01:06:15;93690.09;;;8.68;100.00
19783;BME280;10051;40.294;-3.754;2024-03-02T01:08:41;93696.63;;;8.70;100.00
19783;BME280;10051;40.294;-3.754;2024-03-02T01:11:07;93683.06;;;8.63;100.00
19783;BME280;10051;40.294;-3.754;2024-03-02T01:13:32;93680.59;;;8.72;100.00
19783;BME280;10051;40.294;-3.754;2024-03-02T01:15:59;93683.13;;;8.82;100.00
19783;BME280;10051;40.294;-3.754;2024-03-02T01:18:25;93667.50;;;8.72;100.00
19783;BME280;10051;40.294;-3.754;2024-03-02T01:20:51;93665.38;;;8.74;100.00
19783;BME280;10051;40.294;-3.754;2024-03-02T01:23:20;93664.72;;;8.63;100.00
19783;BME280;10051;40.294;-3.754;2024-03-02T01:25:47;93672.28;;;8.65;100.00
19783;BME280;10051;40.294;-3.754;2024-03-02T01:28:13;93671.19;;;8.71;100.00
19783;BME280;10051;40.294;-3.754;2024-03-02T01:30:39;93663.88;;;8.68;100.00
19783;BME280;10051;40.294;-3.754;2024-03-02T01:33:04;93655.78;;;8.64;100.00
19783;BME280;10051;40.294;-3.754;2024-03-02T01:35:31;93661.69;;;8.75;100.00
19783;BME280;10051;40.294;-3.754;2024-03-02T01:37:57;93608.59;;;8.40;100.00
19783;BME280;10051;40.294;-3.754;2024-03-02T01:40:22;93640.28;;;8.68;100.00
19783;BME280;10051;40.294;-3.754;2024-03-02T01:42:52;93651.16;;;8.80;100.00
19783;BME280;10051;40.294;-3.754;2024-03-02T01:45:18;93589.41;;;8.44;100.00
19783;BME280;10051;40.294;-3.754;2024-03-02T01:47:43;93641.97;;;8.83;100.00
19783;BME280;10051;40.294;-3.754;2024-03-02T01:50:11;93606.34;;;8.57;100.00
19783;BME280;10051;40.294;-3.754;2024-03-02T01:52:37;93614.47;;;8.56;100.00
19783;BME280;10051;40.294;-3.754;2024-03-02T01:55:03;93642.41;;;8.66;100.00
19783;BME280;10051;40.294;-3.754;2024-03-02T01:57:34;93622.56;;;8.59;100.00
19783;BME280;10051;40.294;-3.754;2024-03-02T02:00:00;93613.19;;;8.53;100.00
19783;BME280;10051;40.294;-3.754;2024-03-02T02:02:25;93611.72;;;8.42;100.00
19783;BME280;10051;40.294;-3.754;2024-03-02T02:04:51;93636.22;;;8.56;100.00
19783;BME280;10051;40.294;-3.754;2024-03-02T02:07:17;93631.69;;;8.62;100.00
19783;BME280;10051;40.294;-3.754;2024-03-02T02:09:42;93624.59;;;8.62;100.00
19783;BME280;10051;40.294;-3.754;2024-03-02T02:12:09;93605.03;;;8.55;100.00
19783;BME280;10051;40.294;-3.754;2024-03-02T02:14:34;93615.78;;;8.58;100.00
19783;BME280;10051;40.294;-3.754;2024-03-02T02:17:00;93593.28;;;8.52;100.00
19783;BME280;10051;40.294;-3.754;2024-03-02T02:19:26;93545.41;;;8.17;100.00
19783;BME280;10051;40.294;-3.754;2024-03-02T02:21:51;93555.28;;;8.25;100.00
19783;BME280;10051;40.294;-3.754;2024-03-02T02:24:17;93557.97;;;8.44;100.00
19783;BME280;10051;40.294;-3.754;2024-03-02T02:26:42;93550.41;;;8.43;100.00
19783;BME280;10051;40.294;-3.754;2024-03-02T02:29:08;93573.34;;;8.56;100.00
19783;BME280;10051;40.294;-3.754;2024-03-02T02:31:40;93560.28;;;8.51;100.00
19783;BME280;10051;40.294;-3.754;2024-03-02T02:34:06;93542.38;;;8.34;100.00
19783;BME280;10051;40.294;-3.754;2024-03-02T02:36:37;93555.56;;;8.48;100.00
19783;BME280;10051;40.294;-3.754;2024-03-02T02:39:04;93589.16;;;8.70;100.00
19783;BME280;10051;40.294;-3.754;2024-03-02T02:41:32;93573.03;;;8.58;100.00
19783;BME280;10051;40.294;-3.754;2024-03-02T02:43:58;93546.97;;;8.42;100.00
19783;BME280;10051;40.294;-3.754;2024-03-02T02:46:23;93558.31;;;8.62;100.00
19783;BME280;10051;40.294;-3.754;2024-03-02T02:48:49;93557.31;;;8.58;100.00
19783;BME280;10051;40.294;-3.754;2024-03-02T02:51:16;93536.16;;;8.54;100.00
19783;BME280;10051;40.294;-3.754;2024-03-02T02:53:42;93567.69;;;8.68;100.00
19783;BME280;10051;40.294;-3.754;2024-03-02T02:56:11;93528.59;;;8.47;100.00
19783;BME280;10051;40.294;-3.754;2024-03-02T02:58:36;93554.84;;;8.67;100.00
19783;BME280;10051;40.294;-3.754;2024-03-02T03:01:02;93523.31;;;8.53;100.00
19783;BME280;10051;40.294;-3.754;2024-03-02T03:03:27;93518.31;;;8.56;100.00
19783;BME280;10051;40.294;-3.754;2024-03-02T03:05:53;93502.38;;;8.47;100.00
19783;BME280;10051;40.294;-3.754;2024-03-02T03:08:18;93524.63;;;8.74;100.00
19783;BME280;10051;40.294;-3.754;2024-03-02T03:10:44;93520.72;;;8.72;100.00
19783;BME280;10051;40.294;-3.754;2024-03-02T03:13:10;93533.63;;;8.87;100.00
19783;BME280;10051;40.294;-3.754;2024-03-02T03:15:36;93502.22;;;8.63;100.00
19783;BME280;10051;40.294;-3.754;2024-03-02T03:18:03;93534.19;;;8.84;100.00
19783;BME280;10051;40.294;-3.754;2024-03-02T03:20:29;93514.97;;;8.70;100.00
19783;BME280;10051;40.294;-3.754;2024-03-02T03:22:55;93539.25;;;8.81;100.00
19783;BME280;10051;40.294;-3.754;2024-03-02T03:25:20;93534.00;;;8.81;100.00
19783;BME280;10051;40.294;-3.754;2024-03-02T03:27:46;93531.38;;;8.81;100.00
19783;BME280;10051;40.294;-3.754;2024-03-02T03:30:12;93490.59;;;8.50;100.00
19783;BME280;10051;40.294;-3.754;2024-03-02T03:32:37;93465.06;;;8.37;100.00
19783;BME280;10051;40.294;-3.754;2024-03-02T03:35:03;93478.16;;;8.37;100.00
19783;BME280;10051;40.294;-3.754;2024-03-02T03:37:29;93496.44;;;8.66;100.00
19783;BME280;10051;40.294;-3.754;2024-03-02T03:40:04;93513.03;;;8.81;100.00
19783;BME280;10051;40.294;-3.754;2024-03-02T03:42:41;93512.91;;;8.67;100.00
19783;BME280;10051;40.294;-3.754;2024-03-02T03:45:06;93508.19;;;8.69;100.00
19783;BME280;10051;40.294;-3.754;2024-03-02T03:47:32;93463.84;;;8.53;100.00
19783;BME280;10051;40.294;-3.754;2024-03-02T03:49:58;93496.31;;;8.76;100.00
19783;BME280;10051;40.294;-3.754;2024-03-02T03:52:24;93478.91;;;8.61;100.00
19783;BME280;10051;40.294;-3.754;2024-03-02T03:54:50;93474.47;;;8.62;100.00
19783;BME280;10051;40.294;-3.754;2024-03-02T03:57:16;93458.59;;;8.53;100.00
19783;BME280;10051;40.294;-3.754;2024-03-02T03:59:42;93499.69;;;8.77;100.00
19783;BME280;10051;40.294;-3.754;2024-03-02T04:02:08;93439.34;;;8.39;100.00
19783;BME280;10051;40.294;-3.754;2024-03-02T04:04:34;93477.38;;;8.60;100.00
19783;BME280;10051;40.294;-3.754;2024-03-02T04:07:00;93471.13;;;8.56;100.00
19783;BME280;10051;40.294;-3.754;2024-03-02T04:09:26;93504.22;;;8.71;100.00
19783;BME280;10051;40.294;-3.754;2024-03-02T04:11:51;93475.66;;;8.70;100.00
19783;BME280;10051;40.294;-3.754;2024-03-02T04:14:17;93491.75;;;8.82;100.00
19783;BME280;10051;40.294;-3.754;2024-03-02T04:16:42;93465.19;;;8.70;100.00
19783;BME280;10051;40.294;-3.754;2024-03-02T04:19:08;93480.63;;;8.90;100.00
19783;BME280;10051;40.294;-3.754;2024-03-02T04:21:34;93460.31;;;8.82;100.00
19783;BME280;10051;40.294;-3.754;2024-03-02T04:23:59;93470.72;;;8.87;100.00
19783;BME280;10051;40.294;-3.754;2024-03-02T04:26:26;93397.84;;;8.51;100.00
19783;BME280;10051;40.294;-3.754;2024-03-02T04:28:52;93450.94;;;8.76;100.00
19783;BME280;10051;40.294;-3.754;2024-03-02T04:31:19;93440.75;;;8.74;100.00
19783;BME280;10051;40.294;-3.754;2024-03-02T04:33:44;93415.94;;;8.67;100.00
19783;BME280;10051;40.294;-3.754;2024-03-02T04:36:10;93405.53;;;8.61;100.00
19783;BME280;10051;40.294;-3.754;2024-03-02T04:38:37;93439.41;;;8.77;100.00
19783;BME280;10051;40.294;-3.754;2024-03-02T04:41:06;93416.13;;;8.56;100.00
19783;BME280;10051;40.294;-3.754;2024-03-02T04:43:32;93381.66;;;8.44;100.00
19783;BME280;10051;40.294;-3.754;2024-03-02T04:46:01;93387.53;;;8.36;100.00
19783;BME280;10051;40.294;-3.754;2024-03-02T04:48:26;93403.13;;;8.46;100.00
19783;BME280;10051;40.294;-3.754;2024-03-02T04:50:52;93413.50;;;8.56;100.00
19783;BME280;10051;40.294;-3.754;2024-03-02T04:53:18;93427.28;;;8.62;100.00
19783;BME280;10051;40.294;-3.754;2024-03-02T04:55:43;93397.09;;;8.45;100.00
19783;BME280;10051;40.294;-3.754;2024-03-02T04:58:09;93409.25;;;8.60;100.00
19783;BME280;10051;40.294;-3.754;2024-03-02T05:00:35;93334.50;;;8.06;100.00
19783;BME280;10051;40.294;-3.754;2024-03-02T05:03:02;93424.97;;;8.60;100.00
19783;BME280;10051;40.294;-3.754;2024-03-02T05:05:27;93331.47;;;7.98;100.00
19783;BME280;10051;40.294;-3.754;2024-03-02T05:07:53;93423.25;;;8.70;100.00
19783;BME280;10051;40.294;-3.754;2024-03-02T05:10:19;93407.19;;;8.57;100.00
19783;BME280;10051;40.294;-3.754;2024-03-02T05:12:44;93394.75;;;8.44;100.00
19783;BME280;10051;40.294;-3.754;2024-03-02T05:15:11;93351.56;;;8.22;100.00
19783;BME280;10051;40.294;-3.754;2024-03-02T05:17:37;93388.72;;;8.43;100.00
19783;BME280;10051;40.294;-3.754;2024-03-02T05:20:04;93416.44;;;8.69;100.00
19783;BME280;10051;40.294;-3.754;2024-03-02T05:22:30;93423.53;;;8.68;100.00
19783;BME280;10051;40.294;-3.754;2024-03-02T05:24:56;93385.81;;;8.50;100.00
19783;BME280;10051;40.294;-3.754;2024-03-02T05:27:22;93397.34;;;8.49;100.00
19783;BME280;10051;40.294;-3.754;2024-03-02T05:29:47;93399.34;;;8.57;100.00
19783;BME280;10051;40.294;-3.754;2024-03-02T05:32:13;93385.84;;;8.45;100.00
19783;BME280;10051;40.294;-3.754;2024-03-02T05:34:38;93357.16;;;8.34;100.00
19783;BME280;10051;40.294;-3.754;2024-03-02T05:37:04;93391.66;;;8.61;100.00
19783;BME280;10051;40.294;-3.754;2024-03-02T05:39:30;93389.72;;;8.47;100.00
19783;BME280;10051;40.294;-3.754;2024-03-02T05:41:55;93408.25;;;8.56;100.00
19783;BME280;10051;40.294;-3.754;2024-03-02T05:44:23;93389.03;;;8.42;100.00
19783;BME280;10051;40.294;-3.754;2024-03-02T05:46:49;93396.00;;;8.52;100.00
19783;BME280;10051;40.294;-3.754;2024-03-02T05:49:14;93398.28;;;8.58;100.00
19783;BME280;10051;40.294;-3.754;2024-03-02T05:51:40;93381.63;;;8.49;100.00
19783;BME280;10051;40.294;-3.754;2024-03-02T05:54:06;93366.44;;;8.46;100.00
19783;BME280;10051;40.294;-3.754;2024-03-02T05:56:32;93411.44;;;8.72;100.00
19783;BME280;10051;40.294;-3.754;2024-03-02T05:58:58;93397.22;;;8.59;100.00
19783;BME280;10051;40.294;-3.754;2024-03-02T06:01:43;93371.25;;;8.39;100.00
19783;BME280;10051;40.294;-3.754;2024-03-02T06:04:09;93395.72;;;8.53;100.00
19783;BME280;10051;40.294;-3.754;2024-03-02T06:06:36;93391.09;;;8.45;100.00
19783;BME280;10051;40.294;-3.754;2024-03-02T06:09:03;93375.25;;;8.55;100.00
19783;BME280;10051;40.294;-3.754;2024-03-02T06:11:39;93401.50;;;8.69;100.00
19783;BME280;10051;40.294;-3.754;2024-03-02T06:14:06;93392.22;;;8.58;100.00
19783;BME280;10051;40.294;-3.754;2024-03-02T06:16:32;93389.41;;;8.54;100.00
19783;BME280;10051;40.294;-3.754;2024-03-02T06:18:58;93355.09;;;8.31;100.00
19783;BME280;10051;40.294;-3.754;2024-03-02T06:21:24;93387.34;;;8.51;100.00
19783;BME280;10051;40.294;-3.754;2024-03-02T06:23:50;93360.00;;;8.38;100.00
19783;BME280;10051;40.294;-3.754;2024-03-02T06:26:15;93375.25;;;8.55;100.00
19783;BME280;10051;40.294;-3.754;2024-03-02T06:28:41;93377.69;;;8.46;100.00
19783;BME280;10051;40.294;-3.754;2024-03-02T06:31:06;93357.09;;;8.40;100.00
19783;BME280;10051;40.294;-3.754;2024-03-02T06:33:32;93365.59;;;8.51;100.00
19783;BME280;10051;40.294;-3.754;2024-03-02T06:35:58;93345.13;;;8.33;100.00
19783;BME280;10051;40.294;-3.754;2024-03-02T06:38:23;93354.41;;;8.45;100.00
19783;BME280;10051;40.294;-3.754;2024-03-02T06:40:49;93373.91;;;8.58;100.00
19783;BME280;10051;40.294;-3.754;2024-03-02T06:43:15;93359.72;;;8.40;100.00
19783;BME280;10051;40.294;-3.754;2024-03-02T06:45:40;93356.03;;;8.41;100.00
19783;BME280;10051;40.294;-3.754;2024-03-02T06:48:06;93361.47;;;8.44;100.00
19783;BME280;10051;40.294;-3.754;2024-03-02T06:50:32;93344.84;;;8.35;100.00
19783;BME280;10051;40.294;-3.754;2024-03-02T06:52:58;93308.81;;;8.08;100.00
19783;BME280;10051;40.294;-3.754;2024-03-02T06:55:23;93352.63;;;8.40;100.00
19783;BME280;10051;40.294;-3.754;2024-03-02T06:57:50;93323.91;;;8.16;100.00
19783;BME280;10051;40.294;-3.754;2024-03-02T07:00:16;93338.91;;;8.29;100.00
19783;BME280;10051;40.294;-3.754;2024-03-02T07:02:43;93356.03;;;8.41;100.00
19783;BME280;10051;40.294;-3.754;2024-03-02T07:05:10;93341.19;;;8.36;100.00
19783;BME280;10051;40.294;-3.754;2024-03-02T07:07:35;93339.25;;;8.42;100.00
19783;BME280;10051;40.294;-3.754;2024-03-02T07:10:02;93355.13;;;8.51;100.00
19783;BME280;10051;40.294;-3.754;2024-03-02T07:12:28;93333.16;;;8.27;100.00
19783;BME280;10051;40.294;-3.754;2024-03-02T07:14:53;93289.44;;;8.09;100.00
19783;BME280;10051;40.294;-3.754;2024-03-02T07:17:39;93349.66;;;8.47;100.00
19783;BME280;10051;40.294;-3.754;2024-03-02T07:20:05;93307.09;;;8.17;100.00
19783;BME280;10051;40.294;-3.754;2024-03-02T07:22:32;93298.41;;;8.22;100.00
19783;BME280;10051;40.294;-3.754;2024-03-02T07:24:58;93339.69;;;8.49;100.00
19783;BME280;10051;40.294;-3.754;2024-03-02T07:27:24;93338.69;;;8.45;100.00
19783;BME280;10051;40.294;-3.754;2024-03-02T07:29:49;93306.69;;;8.29;100.00
19783;BME280;10051;40.294;-3.754;2024-03-02T07:32:15;93332.34;;;8.51;100.00
19783;BME280;10051;40.294;-3.754;2024-03-02T07:34:40;93329.72;;;8.51;100.00
19783;BME280;10051;40.294;-3.754;2024-03-02T07:37:06;93349.06;;;8.55;100.00
19783;BME280;10051;40.294;-3.754;2024-03-02T07:39:31;93316.03;;;8.35;100.00
19783;BME280;10051;40.294;-3.754;2024-03-02T07:41:57;93316.31;;;8.33;100.00
19783;BME280;10051;40.294;-3.754;2024-03-02T07:44:23;93344.88;;;8.54;100.00
19783;BME280;10051;40.294;-3.754;2024-03-02T07:46:49;93324.81;;;8.25;100.00
19783;BME280;10051;40.294;-3.754;2024-03-02T07:49:18;93345.13;;;8.53;100.00
19783;BME280;10051;40.294;-3.754;2024-03-02T07:51:44;93308.19;;;8.35;100.00
19783;BME280;10051;40.294;-3.754;2024-03-02T07:54:10;93284.03;;;8.19;100.00
19783;BME280;10051;40.294;-3.754;2024-03-02T07:56:36;93317.38;;;8.52;100.00
19783;BME280;10051;40.294;-3.754;2024-03-02T07:59:03;93308.53;;;8.28;100.00
19783;BME280;10051;40.294;-3.754;2024-03-02T08:01:30;93348.31;;;8.50;100.00
19783;BME280;10051;40.294;-3.754;2024-03-02T08:03:57;93337.09;;;8.49;100.00
19783;BME280;10051;40.294;-3.754;2024-03-02T08:06:24;93310.50;;;8.37;100.00
19783;BME280;10051;40.294;-3.754;2024-03-02T08:08:54;93338.56;;;8.55;100.00
19783;BME280;10051;40.294;-3.754;2024-03-02T08:11:20;93261.97;;;8.06;100.00
19783;BME280;10051;40.294;-3.754;2024-03-02T08:13:46;93293.22;;;8.36;100.00
19783;BME280;10051;40.294;-3.754;2024-03-02T08:16:11;93242.31;;;8.09;100.00
19783;BME280;10051;40.294;-3.754;2024-03-02T08:18:37;93293.09;;;8.46;100.00
19783;BME280;10051;40.294;-3.754;2024-03-02T08:21:02;93294.63;;;8.47;100.00
19783;BME280;10051;40.294;-3.754;2024-03-02T08:23:28;93310.00;;;8.54;100.00
19783;BME280;10051;40.294;-3.754;2024-03-02T08:25:54;93326.91;;;8.61;100.00
19783;BME280;10051;40.294;-3.754;2024-03-02T08:28:19;93295.22;;;8.44;100.00
19783;BME280;10051;40.294;-3.754;2024-03-02T08:30:45;93319.94;;;8.57;100.00
19783;BME280;10051;40.294;-3.754;2024-03-02T08:33:11;93258.50;;;8.30;100.00
19783;BME280;10051;40.294;-3.754;2024-03-02T08:35:36;93300.53;;;8.58;100.00
19783;BME280;10051;40.294;-3.754;2024-03-02T08:38:03;93264.63;;;8.39;100.00
19783;BME280;10051;40.294;-3.754;2024-03-02T08:40:29;93244.13;;;8.27;100.00
19783;BME280;10051;40.294;-3.754;2024-03-02T08:42:55;93247.31;;;8.24;100.00
19783;BME280;10051;40.294;-3.754;2024-03-02T08:45:21;93250.91;;;8.28;100.00
19783;BME280;10051;40.294;-3.754;2024-03-02T08:47:47;93249.78;;;8.34;100.00
19783;BME280;10051;40.294;-3.754;2024-03-02T08:50:13;93295.88;;;8.69;100.00
19783;BME280;10051;40.294;-3.754;2024-03-02T08:52:39;93276.19;;;8.57;100.00
19783;BME280;10051;40.294;-3.754;2024-03-02T08:55:05;93280.94;;;8.69;100.00
19783;BME280;10051;40.294;-3.754;2024-03-02T08:57:31;93275.13;;;8.72;100.00
19783;BME280;10051;40.294;-3.754;2024-03-02T08:59:57;93227.59;;;8.46;100.00
19783;BME280;10051;40.294;-3.754;2024-03-02T09:02:23;93271.72;;;8.72;100.00
19783;BME280;10051;40.294;-3.754;2024-03-02T09:04:49;93296.72;;;8.83;100.00
19783;BME280;10051;40.294;-3.754;2024-03-02T09:07:15;93284.25;;;8.75;100.00
19783;BME280;10051;40.294;-3.754;2024-03-02T09:09:40;93279.59;;;8.72;100.00
19783;BME280;10051;40.294;-3.754;2024-03-02T09:12:06;93240.16;;;8.49;100.00
19783;BME280;10051;40.294;-3.754;2024-03-02T09:14:33;93270.88;;;8.76;100.00
19783;BME280;10051;40.294;-3.754;2024-03-02T09:16:59;93239.78;;;8.70;100.00
19783;BME280;10051;40.294;-3.754;2024-03-02T09:19:24;93251.84;;;8.85;100.00
19783;BME280;10051;40.294;-3.754;2024-03-02T09:21:50;93256.56;;;9.02;100.00
19783;BME280;10051;40.294;-3.754;2024-03-02T09:24:16;93257.03;;;9.04;100.00
19783;BME280;10051;40.294;-3.754;2024-03-02T09:26:41;93192.41;;;8.52;100.00
19783;BME280;10051;40.294;-3.754;2024-03-02T09:29:06;93123.50;;;8.04;100.00
19783;BME280;10051;40.294;-3.754;2024-03-02T09:31:32;93252.47;;;8.96;100.00
19783;BME280;10051;40.294;-3.754;2024-03-02T09:33:58;93242.81;;;8.91;100.00
19783;BME280;10051;40.294;-3.754;2024-03-02T09:36:23;93243.53;;;8.97;100.00
19783;BME280;10051;40.294;-3.754;2024-03-02T09:38:49;93198.66;;;8.70;100.00
19783;BME280;10051;40.294;-3.754;2024-03-02T09:41:15;93234.09;;;8.96;99.26
19783;BME280;10051;40.294;-3.754;2024-03-02T09:43:40;93232.66;;;9.03;100.00
19783;BME280;10051;40.294;-3.754;2024-03-02T09:46:09;93197.19;;;8.92;100.00
19783;BME280;10051;40.294;-3.754;2024-03-02T09:48:35;93227.00;;;9.10;98.66
19783;BME280;10051;40.294;-3.754;2024-03-02T09:51:01;93197.09;;;8.97;98.12
19783;BME280;10051;40.294;-3.754;2024-03-02T09:53:33;93223.69;;;9.32;98.83
19783;BME280;10051;40.294;-3.754;2024-03-02T09:55:59;93209.50;;;9.33;95.67
19783;BME280;10051;40.294;-3.754;2024-03-02T09:58:26;93220.13;;;9.42;95.91
19783;BME280;10051;40.294;-3.754;2024-03-02T10:00:51;93168.03;;;9.21;94.53
19783;BME280;10051;40.294;-3.754;2024-03-02T10:03:18;93232.63;;;9.59;94.22
19783;BME280;10051;40.294;-3.754;2024-03-02T10:05:44;93229.44;;;9.48;92.70
19783;BME280;10051;40.294;-3.754;2024-03-02T10:08:10;93232.72;;;9.54;92.84
19783;BME280;10051;40.294;-3.754;2024-03-02T10:10:40;93191.44;;;9.32;91.24
19783;BME280;10051;40.294;-3.754;2024-03-02T10:13:06;93238.84;;;9.49;91.34
19783;BME280;10051;40.294;-3.754;2024-03-02T10:15:33;93229.88;;;9.50;92.73
19783;BME280;10051;40.294;-3.754;2024-03-02T10:17:58;93235.13;;;9.50;93.24
19783;BME280;10051;40.294;-3.754;2024-03-02T10:20:27;93218.34;;;9.37;96.41
19783;BME280;10051;40.294;-3.754;2024-03-02T10:23:15;93249.25;;;9.41;100.00
19783;BME280;10051;40.294;-3.754;2024-03-02T10:25:42;93229.72;;;9.33;100.00
19783;BME280;10051;40.294;-3.754;2024-03-02T10:28:07;93190.13;;;9.06;99.36
19783;BME280;10051;40.294;-3.754;2024-03-02T10:30:34;93211.09;;;9.20;99.88
19783;BME280;10051;40.294;-3.754;2024-03-02T10:33:03;93203.41;;;9.24;99.32
19783;BME280;10051;40.294;-3.754;2024-03-02T10:35:29;93186.41;;;9.21;97.83
19783;BME280;10051;40.294;-3.754;2024-03-02T10:37:59;93196.69;;;9.32;95.63
19783;BME280;10051;40.294;-3.754;2024-03-02T10:40:26;93135.66;;;8.89;93.76
19783;BME280;10051;40.294;-3.754;2024-03-02T10:42:52;93189.50;;;9.23;95.12
19783;BME280;10051;40.294;-3.754;2024-03-02T10:45:20;93176.72;;;9.22;95.61
19783;BME280;10051;40.294;-3.754;2024-03-02T10:47:48;93173.38;;;9.16;96.01
19783;BME280;10051;40.294;-3.754;2024-03-02T10:50:14;93161.94;;;9.12;95.58
19783;BME280;10051;40.294;-3.754;2024-03-02T10:52:40;93181.38;;;9.25;96.71
19783;BME280;10051;40.294;-3.754;2024-03-02T10:55:06;93181.25;;;9.30;98.53
19783;BME280;10051;40.294;-3.754;2024-03-02T10:57:53;93173.38;;;9.30;99.83
19783;BME280;10051;40.294;-3.754;2024-03-02T11:00:20;93132.72;;;9.05;100.00
19783;BME280;10051;40.294;-3.754;2024-03-02T11:03:10;93167.53;;;9.33;100.00
19783;BME280;10051;40.294;-3.754;2024-03-02T11:05:41;93140.66;;;9.14;100.00
19783;BME280;10051;40.294;-3.754;2024-03-02T11:08:12;93161.16;;;9.26;100.00
19783;BME280;10051;40.294;-3.754;2024-03-02T11:10:47;93158.13;;;9.18;100.00
19783;BME280;10051;40.294;-3.754;2024-03-02T11:13:13;93082.94;;;8.77;100.00
19783;BME280;10051;40.294;-3.754;2024-03-02T11:15:45;93154.38;;;9.11;100.00
19783;BME280;10051;40.294;-3.754;2024-03-02T11:18:11;93137.16;;;9.18;100.00
19783;BME280;10051;40.294;-3.754;2024-03-02T11:20:39;93065.38;;;8.77;100.00
19783;BME280;10051;40.294;-3.754;2024-03-02T11:23:07;93130.56;;;9.21;100.00
19783;BME280;10051;40.294;-3.754;2024-03-02T11:25:33;93082.72;;;8.87;100.00
19783;BME280;10051;40.294;-3.754;2024-03-02T11:28:06;93110.16;;;9.18;100.00
19783;BME280;10051;40.294;-3.754;2024-03-02T11:33:01;93095.47;;;9.31;100.00
19783;BME280;10051;40.294;-3.754;2024-03-02T11:35:33;93056.44;;;9.15;100.00
19783;BME280;10051;40.294;-3.754;2024-03-02T11:37:58;93030.75;;;9.03;100.00
19783;BME280;10051;40.294;-3.754;2024-03-02T11:40:25;93076.88;;;9.41;100.00
19783;BME280;10051;40.294;-3.754;2024-03-02T11:42:50;93065.72;;;9.35;100.00
19783;BME280;10051;40.294;-3.754;2024-03-02T11:45:17;93090.38;;;9.48;100.00
19783;BME280;10051;40.294;-3.754;2024-03-02T11:47:50;93004.16;;;8.96;100.00
19783;BME280;10051;40.294;-3.754;2024-03-02T11:50:35;93079.72;;;9.53;100.00
19783;BME280;10051;40.294;-3.754;2024-03-02T11:53:05;93038.50;;;9.31;100.00
19783;BME280;10051;40.294;-3.754;2024-03-02T11:55:37;93012.94;;;9.14;100.00
19783;BME280;10051;40.294;-3.754;2024-03-02T11:58:04;93055.16;;;9.49;100.00
19783;BME280;10051;40.294;-3.754;2024-03-02T12:00:29;93052.06;;;9.47;100.00
19783;BME280;10051;40.294;-3.754;2024-03-02T12:03:06;93019.97;;;9.28;100.00
19783;BME280;10051;40.294;-3.754;2024-03-02T12:05:33;93032.50;;;9.31;100.00
19783;BME280;10051;40.294;-3.754;2024-03-02T12:08:04;93021.41;;;9.34;100.00
19783;BME280;10051;40.294;-3.754;2024-03-02T12:10:30;93019.44;;;9.40;100.00
19783;BME280;10051;40.294;-3.754;2024-03-02T12:13:03;93028.69;;;9.37;100.00
19783;BME280;10051;40.294;-3.754;2024-03-02T12:15:34;93017.41;;;9.36;100.00
19783;BME280;10051;40.294;-3.754;2024-03-02T12:18:01;93015.75;;;9.41;100.00
19783;BME280;10051;40.294;-3.754;2024-03-02T12:20:28;93000.91;;;9.36;100.00
19783;BME280;10051;40.294;-3.754;2024-03-02T12:22:55;92968.22;;;9.19;100.00
19783;BME280;10051;40.294;-3.754;2024-03-02T12:25:23;92998.66;;;9.43;100.00
19783;BME280;10051;40.294;-3.754;2024-03-02T12:27:51;92997.16;;;9.51;100.00
19783;BME280;10051;40.294;-3.754;2024-03-02T12:30:18;92986.59;;;9.42;100.00
19783;BME280;10051;40.294;-3.754;2024-03-02T12:32:44;92966.03;;;9.35;100.00
19783;BME280;10051;40.294;-3.754;2024-03-02T12:35:15;92973.38;;;9.47;100.00
19783;BME280;10051;40.294;-3.754;2024-03-02T12:37:45;92971.19;;;9.49;100.00
19783;BME280;10051;40.294;-3.754;2024-03-02T12:40:12;92978.00;;;9.50;100.00
19783;BME280;10051;40.294;-3.754;2024-03-02T12:42:38;92971.66;;;9.51;100.00
19783;BME280;10051;40.294;-3.754;2024-03-02T12:45:05;92879.91;;;9.06;100.00
19783;BME280;10051;40.294;-3.754;2024-03-02T12:47:32;92925.19;;;9.43;100.00
19783;BME280;10051;40.294;-3.754;2024-03-02T12:49:59;92906.34;;;9.41;100.00
19783;BME280;10051;40.294;-3.754;2024-03-02T12:52:24;92917.94;;;9.49;100.00
19783;BME280;10051;40.294;-3.754;2024-03-02T12:54:50;92909.91;;;9.45;100.00
19783;BME280;10051;40.294;-3.754;2024-03-02T12:57:19;92918.59;;;9.55;100.00